sensor_id;sensor_type;location;lat;lon;timestamp;P1;durP1;ratioP1;P2;durP2;ratioP2
8171;SDS011;4127;47.908;10.850;2022-09-09T00:02:27;2.23;;;1.40;;
8171;SDS011;4127;47.908;10.850;2022-09-09T00:04:38;1.30;;;1.20;;
8171;SDS011;4127;47.908;10.850;2022-09-09T00:07:13;1.60;;;1.27;;
8171;SDS011;4127;47.908;10.850;2022-09-09T00:09:54;2.77;;;1.57;;
8171;SDS011;4127;47.908;10.850;2022-09-09T00:12:39;1.43;;;1.33;;
8171;SDS011;4127;47.908;10.850;2022-09-09T00:15:39;1.47;;;1.37;;
8171;SDS011;4127;47.908;10.850;2022-09-09T00:21:10;1.67;;;1.40;;
8171;SDS011;4127;47.908;10.850;2022-09-09T00:24:00;2.27;;;1.40;;
8171;SDS011;4127;47.908;10.850;2022-09-09T00:26:35;1.50;;;1.40;;
8171;SDS011;4127;47.908;10.850;2022-09-09T00:29:17;2.00;;;1.40;;
8171;SDS011;4127;47.908;10.850;2022-09-09T00:31:54;2.00;;;1.40;;
8171;SDS011;4127;47.908;10.850;2022-09-09T00:34:26;2.00;;;1.57;;
8171;SDS011;4127;47.908;10.850;2022-09-09T00:36:54;1.60;;;1.50;;
8171;SDS011;4127;47.908;10.850;2022-09-09T00:39:25;1.47;;;1.37;;
8171;SDS011;4127;47.908;10.850;2022-09-09T00:47:30;2.23;;;1.60;;
8171;SDS011;4127;47.908;10.850;2022-09-09T00:55:45;1.60;;;1.50;;
8171;SDS011;4127;47.908;10.850;2022-09-09T00:58:20;4.30;;;1.73;;
8171;SDS011;4127;47.908;10.850;2022-09-09T01:00:50;2.50;;;1.40;;
8171;SDS011;4127;47.908;10.850;2022-09-09T01:03:35;1.87;;;1.50;;
8171;SDS011;4127;47.908;10.850;2022-09-09T01:06:34;1.30;;;1.20;;
8171;SDS011;4127;47.908;10.850;2022-09-09T01:17:15;1.27;;;1.17;;
8171;SDS011;4127;47.908;10.850;2022-09-09T01:22:33;1.43;;;1.33;;
8171;SDS011;4127;47.908;10.850;2022-09-09T01:27:53;1.50;;;1.40;;
8171;SDS011;4127;47.908;10.850;2022-09-09T01:30:30;1.43;;;1.27;;
8171;SDS011;4127;47.908;10.850;2022-09-09T01:33:00;1.40;;;1.30;;
8171;SDS011;4127;47.908;10.850;2022-09-09T01:38:01;2.17;;;1.40;;
8171;SDS011;4127;47.908;10.850;2022-09-09T01:40:28;2.20;;;1.30;;
8171;SDS011;4127;47.908;10.850;2022-09-09T01:42:54;3.60;;;1.57;;
8171;SDS011;4127;47.908;10.850;2022-09-09T01:45:22;1.50;;;1.40;;
8171;SDS011;4127;47.908;10.850;2022-09-09T01:47:50;1.37;;;1.23;;
8171;SDS011;4127;47.908;10.850;2022-09-09T01:50:19;1.20;;;1.10;;
8171;SDS011;4127;47.908;10.850;2022-09-09T01:52:46;1.40;;;1.30;;
8171;SDS011;4127;47.908;10.850;2022-09-09T01:55:19;2.00;;;1.30;;
8171;SDS011;4127;47.908;10.850;2022-09-09T02:00:39;1.53;;;1.40;;
8171;SDS011;4127;47.908;10.850;2022-09-09T02:06:05;2.50;;;1.40;;
8171;SDS011;4127;47.908;10.850;2022-09-09T02:08:52;4.00;;;1.53;;
8171;SDS011;4127;47.908;10.850;2022-09-09T02:11:22;2.40;;;1.80;;
8171;SDS011;4127;47.908;10.850;2022-09-09T02:13:54;2.50;;;1.67;;
8171;SDS011;4127;47.908;10.850;2022-09-09T02:16:33;2.30;;;1.60;;
8171;SDS011;4127;47.908;10.850;2022-09-09T02:19:14;1.60;;;1.50;;
8171;SDS011;4127;47.908;10.850;2022-09-09T02:21:47;1.60;;;1.50;;
8171;SDS011;4127;47.908;10.850;2022-09-09T02:24:14;1.60;;;1.50;;
8171;SDS011;4127;47.908;10.850;2022-09-09T02:26:42;1.60;;;1.40;;
8171;SDS011;4127;47.908;10.850;2022-09-09T02:29:14;1.87;;;1.40;;
8171;SDS011;4127;47.908;10.850;2022-09-09T02:31:44;3.40;;;1.57;;
8171;SDS011;4127;47.908;10.850;2022-09-09T02:34:13;1.50;;;1.40;;
8171;SDS011;4127;47.908;10.850;2022-09-09T02:36:41;1.90;;;1.80;;
8171;SDS011;4127;47.908;10.850;2022-09-09T02:39:10;1.87;;;1.60;;
8171;SDS011;4127;47.908;10.850;2022-09-09T02:41:39;2.27;;;1.80;;
8171;SDS011;4127;47.908;10.850;2022-09-09T02:44:11;2.50;;;1.60;;
8171;SDS011;4127;47.908;10.850;2022-09-09T02:49:51;2.50;;;1.50;;
8171;SDS011;4127;47.908;10.850;2022-09-09T02:55:41;1.60;;;1.50;;
8171;SDS011;4127;47.908;10.850;2022-09-09T02:58:16;2.50;;;1.47;;
8171;SDS011;4127;47.908;10.850;2022-09-09T03:00:47;1.40;;;1.30;;
8171;SDS011;4127;47.908;10.850;2022-09-09T03:03:15;1.57;;;1.40;;
8171;SDS011;4127;47.908;10.850;2022-09-09T03:05:44;1.70;;;1.60;;
8171;SDS011;4127;47.908;10.850;2022-09-09T03:08:12;1.63;;;1.40;;
8171;SDS011;4127;47.908;10.850;2022-09-09T03:10:39;1.90;;;1.63;;
8171;SDS011;4127;47.908;10.850;2022-09-09T03:13:06;1.70;;;1.60;;
8171;SDS011;4127;47.908;10.850;2022-09-09T03:15:34;1.57;;;1.40;;
8171;SDS011;4127;47.908;10.850;2022-09-09T03:18:01;1.53;;;1.43;;
8171;SDS011;4127;47.908;10.850;2022-09-09T03:20:28;1.50;;;1.40;;
8171;SDS011;4127;47.908;10.850;2022-09-09T03:22:56;1.50;;;1.40;;
8171;SDS011;4127;47.908;10.850;2022-09-09T03:25:22;2.93;;;1.53;;
8171;SDS011;4127;47.908;10.850;2022-09-09T03:27:50;3.10;;;1.80;;
8171;SDS011;4127;47.908;10.850;2022-09-09T03:30:20;2.27;;;1.53;;
8171;SDS011;4127;47.908;10.850;2022-09-09T03:32:48;1.40;;;1.30;;
8171;SDS011;4127;47.908;10.850;2022-09-09T03:35:15;1.87;;;1.60;;
8171;SDS011;4127;47.908;10.850;2022-09-09T03:37:42;1.80;;;1.70;;
8171;SDS011;4127;47.908;10.850;2022-09-09T03:40:09;1.40;;;1.30;;
8171;SDS011;4127;47.908;10.850;2022-09-09T03:42:37;1.67;;;1.57;;
8171;SDS011;4127;47.908;10.850;2022-09-09T03:45:05;2.10;;;1.87;;
8171;SDS011;4127;47.908;10.850;2022-09-09T03:47:33;1.97;;;1.80;;
8171;SDS011;4127;47.908;10.850;2022-09-09T03:50:00;2.13;;;1.70;;
8171;SDS011;4127;47.908;10.850;2022-09-09T03:52:27;2.27;;;1.63;;
8171;SDS011;4127;47.908;10.850;2022-09-09T03:54:55;1.40;;;1.30;;
8171;SDS011;4127;47.908;10.850;2022-09-09T03:57:22;1.70;;;1.60;;
8171;SDS011;4127;47.908;10.850;2022-09-09T03:59:49;4.70;;;1.63;;
8171;SDS011;4127;47.908;10.850;2022-09-09T04:02:16;2.33;;;1.60;;
8171;SDS011;4127;47.908;10.850;2022-09-09T04:04:42;1.63;;;1.53;;
8171;SDS011;4127;47.908;10.850;2022-09-09T04:07:09;1.63;;;1.53;;
8171;SDS011;4127;47.908;10.850;2022-09-09T04:09:37;1.70;;;1.40;;
8171;SDS011;4127;47.908;10.850;2022-09-09T04:12:04;1.80;;;1.70;;
8171;SDS011;4127;47.908;10.850;2022-09-09T04:14:32;2.03;;;1.60;;
8171;SDS011;4127;47.908;10.850;2022-09-09T04:16:59;2.00;;;1.60;;
8171;SDS011;4127;47.908;10.850;2022-09-09T04:19:26;1.63;;;1.53;;
8171;SDS011;4127;47.908;10.850;2022-09-09T04:21:53;3.30;;;1.70;;
8171;SDS011;4127;47.908;10.850;2022-09-09T04:24:19;2.60;;;1.70;;
8171;SDS011;4127;47.908;10.850;2022-09-09T04:26:47;1.60;;;1.50;;
8171;SDS011;4127;47.908;10.850;2022-09-09T04:29:14;2.43;;;1.77;;
8171;SDS011;4127;47.908;10.850;2022-09-09T04:31:41;1.77;;;1.67;;
8171;SDS011;4127;47.908;10.850;2022-09-09T04:34:08;2.70;;;1.70;;
8171;SDS011;4127;47.908;10.850;2022-09-09T04:36:35;1.77;;;1.50;;
8171;SDS011;4127;47.908;10.850;2022-09-09T04:39:02;2.53;;;1.60;;
8171;SDS011;4127;47.908;10.850;2022-09-09T04:41:29;2.00;;;1.90;;
8171;SDS011;4127;47.908;10.850;2022-09-09T04:43:57;2.73;;;1.80;;
8171;SDS011;4127;47.908;10.850;2022-09-09T04:46:25;1.53;;;1.43;;
8171;SDS011;4127;47.908;10.850;2022-09-09T04:48:51;2.33;;;1.90;;
8171;SDS011;4127;47.908;10.850;2022-09-09T04:51:18;19.20;;;6.03;;
8171;SDS011;4127;47.908;10.850;2022-09-09T04:53:45;10.13;;;3.77;;
8171;SDS011;4127;47.908;10.850;2022-09-09T04:56:14;4.23;;;2.20;;
8171;SDS011;4127;47.908;10.850;2022-09-09T04:58:42;2.23;;;1.80;;
8171;SDS011;4127;47.908;10.850;2022-09-09T05:01:10;3.43;;;1.70;;
8171;SDS011;4127;47.908;10.850;2022-09-09T05:03:37;1.70;;;1.60;;
8171;SDS011;4127;47.908;10.850;2022-09-09T05:06:05;1.70;;;1.60;;
8171;SDS011;4127;47.908;10.850;2022-09-09T05:08:35;2.13;;;1.77;;
8171;SDS011;4127;47.908;10.850;2022-09-09T05:13:48;2.03;;;1.80;;
8171;SDS011;4127;47.908;10.850;2022-09-09T05:16:16;2.20;;;1.60;;
8171;SDS011;4127;47.908;10.850;2022-09-09T05:18:44;1.90;;;1.40;;
8171;SDS011;4127;47.908;10.850;2022-09-09T05:21:15;1.70;;;1.60;;
8171;SDS011;4127;47.908;10.850;2022-09-09T05:23:44;1.50;;;1.40;;
8171;SDS011;4127;47.908;10.850;2022-09-09T05:26:15;1.60;;;1.50;;
8171;SDS011;4127;47.908;10.850;2022-09-09T05:28:44;1.60;;;1.50;;
8171;SDS011;4127;47.908;10.850;2022-09-09T05:31:12;1.93;;;1.50;;
8171;SDS011;4127;47.908;10.850;2022-09-09T05:33:40;1.60;;;1.50;;
8171;SDS011;4127;47.908;10.850;2022-09-09T05:36:10;4.47;;;1.57;;
8171;SDS011;4127;47.908;10.850;2022-09-09T05:38:41;1.70;;;1.53;;
8171;SDS011;4127;47.908;10.850;2022-09-09T05:41:09;1.73;;;1.63;;
8171;SDS011;4127;47.908;10.850;2022-09-09T05:43:37;1.63;;;1.50;;
8171;SDS011;4127;47.908;10.850;2022-09-09T05:46:06;2.37;;;1.73;;
8171;SDS011;4127;47.908;10.850;2022-09-09T05:48:37;6.70;;;1.90;;
8171;SDS011;4127;47.908;10.850;2022-09-09T05:51:06;2.23;;;1.70;;
8171;SDS011;4127;47.908;10.850;2022-09-09T05:53:35;2.07;;;1.70;;
8171;SDS011;4127;47.908;10.850;2022-09-09T05:56:06;4.40;;;1.87;;
8171;SDS011;4127;47.908;10.850;2022-09-09T05:58:37;2.70;;;1.70;;
8171;SDS011;4127;47.908;10.850;2022-09-09T06:01:05;2.60;;;2.23;;
8171;SDS011;4127;47.908;10.850;2022-09-09T06:03:34;2.83;;;2.10;;
8171;SDS011;4127;47.908;10.850;2022-09-09T06:06:03;5.50;;;3.53;;
8171;SDS011;4127;47.908;10.850;2022-09-09T06:08:32;2.80;;;2.10;;
8171;SDS011;4127;47.908;10.850;2022-09-09T06:11:03;2.60;;;2.40;;
8171;SDS011;4127;47.908;10.850;2022-09-09T06:13:31;2.23;;;1.90;;
8171;SDS011;4127;47.908;10.850;2022-09-09T06:15:58;2.63;;;1.70;;
8171;SDS011;4127;47.908;10.850;2022-09-09T06:18:25;4.53;;;1.53;;
8171;SDS011;4127;47.908;10.850;2022-09-09T06:20:56;2.07;;;1.50;;
8171;SDS011;4127;47.908;10.850;2022-09-09T06:23:24;2.17;;;1.70;;
8171;SDS011;4127;47.908;10.850;2022-09-09T06:25:51;3.20;;;1.83;;
8171;SDS011;4127;47.908;10.850;2022-09-09T06:28:26;1.40;;;1.30;;
8171;SDS011;4127;47.908;10.850;2022-09-09T06:30:57;1.50;;;1.40;;
8171;SDS011;4127;47.908;10.850;2022-09-09T06:33:25;1.90;;;1.50;;
8171;SDS011;4127;47.908;10.850;2022-09-09T06:35:52;2.30;;;1.60;;
8171;SDS011;4127;47.908;10.850;2022-09-09T06:38:20;2.37;;;1.50;;
8171;SDS011;4127;47.908;10.850;2022-09-09T06:40:52;2.57;;;1.53;;
8171;SDS011;4127;47.908;10.850;2022-09-09T06:43:26;2.33;;;1.43;;
8171;SDS011;4127;47.908;10.850;2022-09-09T06:45:58;1.80;;;1.50;;
8171;SDS011;4127;47.908;10.850;2022-09-09T06:48:30;1.67;;;1.40;;
8171;SDS011;4127;47.908;10.850;2022-09-09T06:51:04;2.27;;;1.77;;
8171;SDS011;4127;47.908;10.850;2022-09-09T06:53:31;2.17;;;1.50;;
8171;SDS011;4127;47.908;10.850;2022-09-09T06:56:03;2.60;;;1.50;;
8171;SDS011;4127;47.908;10.850;2022-09-09T06:58:43;1.60;;;1.50;;
8171;SDS011;4127;47.908;10.850;2022-09-09T07:01:11;3.60;;;1.70;;
8171;SDS011;4127;47.908;10.850;2022-09-09T07:03:40;1.97;;;1.73;;
8171;SDS011;4127;47.908;10.850;2022-09-09T07:06:09;1.30;;;1.23;;
8171;SDS011;4127;47.908;10.850;2022-09-09T07:08:50;1.60;;;1.50;;
8171;SDS011;4127;47.908;10.850;2022-09-09T07:11:22;1.83;;;1.50;;
8171;SDS011;4127;47.908;10.850;2022-09-09T07:13:51;3.00;;;1.53;;
8171;SDS011;4127;47.908;10.850;2022-09-09T07:16:19;1.87;;;1.67;;
8171;SDS011;4127;47.908;10.850;2022-09-09T07:18:49;1.93;;;1.73;;
8171;SDS011;4127;47.908;10.850;2022-09-09T07:21:17;2.20;;;1.97;;
8171;SDS011;4127;47.908;10.850;2022-09-09T07:23:45;3.23;;;2.47;;
8171;SDS011;4127;47.908;10.850;2022-09-09T07:26:12;1.90;;;1.80;;
8171;SDS011;4127;47.908;10.850;2022-09-09T07:28:45;3.50;;;2.23;;
8171;SDS011;4127;47.908;10.850;2022-09-09T07:31:13;3.10;;;2.50;;
8171;SDS011;4127;47.908;10.850;2022-09-09T07:33:48;2.50;;;2.10;;
8171;SDS011;4127;47.908;10.850;2022-09-09T07:36:16;1.90;;;1.57;;
8171;SDS011;4127;47.908;10.850;2022-09-09T07:38:49;1.50;;;1.40;;
8171;SDS011;4127;47.908;10.850;2022-09-09T07:41:19;1.67;;;1.57;;
8171;SDS011;4127;47.908;10.850;2022-09-09T07:43:49;2.23;;;1.50;;
8171;SDS011;4127;47.908;10.850;2022-09-09T07:46:17;2.63;;;1.90;;
8171;SDS011;4127;47.908;10.850;2022-09-09T07:48:48;2.13;;;1.50;;
8171;SDS011;4127;47.908;10.850;2022-09-09T07:51:27;2.13;;;1.37;;
8171;SDS011;4127;47.908;10.850;2022-09-09T07:53:57;2.43;;;1.53;;
8171;SDS011;4127;47.908;10.850;2022-09-09T07:56:26;1.37;;;1.30;;
8171;SDS011;4127;47.908;10.850;2022-09-09T07:58:54;2.20;;;1.43;;
8171;SDS011;4127;47.908;10.850;2022-09-09T08:01:23;2.97;;;1.67;;
8171;SDS011;4127;47.908;10.850;2022-09-09T08:03:55;1.30;;;1.20;;
8171;SDS011;4127;47.908;10.850;2022-09-09T08:06:31;1.67;;;1.40;;
8171;SDS011;4127;47.908;10.850;2022-09-09T08:08:59;2.90;;;1.77;;
8171;SDS011;4127;47.908;10.850;2022-09-09T08:11:27;2.10;;;1.30;;
8171;SDS011;4127;47.908;10.850;2022-09-09T08:13:55;1.53;;;1.43;;
8171;SDS011;4127;47.908;10.850;2022-09-09T08:16:28;1.30;;;1.20;;
8171;SDS011;4127;47.908;10.850;2022-09-09T08:18:57;1.60;;;1.20;;
8171;SDS011;4127;47.908;10.850;2022-09-09T08:21:26;1.73;;;1.30;;
8171;SDS011;4127;47.908;10.850;2022-09-09T08:23:54;1.40;;;1.27;;
8171;SDS011;4127;47.908;10.850;2022-09-09T08:26:27;2.00;;;1.40;;
8171;SDS011;4127;47.908;10.850;2022-09-09T08:28:59;2.00;;;1.40;;
8171;SDS011;4127;47.908;10.850;2022-09-09T08:31:29;2.37;;;1.40;;
8171;SDS011;4127;47.908;10.850;2022-09-09T08:33:58;1.23;;;1.13;;
8171;SDS011;4127;47.908;10.850;2022-09-09T08:36:26;1.50;;;1.30;;
8171;SDS011;4127;47.908;10.850;2022-09-09T08:38:56;1.63;;;1.20;;
8171;SDS011;4127;47.908;10.850;2022-09-09T08:41:29;2.37;;;1.40;;
8171;SDS011;4127;47.908;10.850;2022-09-09T08:50:08;1.60;;;1.33;;
8171;SDS011;4127;47.908;10.850;2022-09-09T08:53:11;2.27;;;1.20;;
8171;SDS011;4127;47.908;10.850;2022-09-09T08:55:49;2.10;;;1.37;;
8171;SDS011;4127;47.908;10.850;2022-09-09T08:58:22;1.63;;;1.50;;
8171;SDS011;4127;47.908;10.850;2022-09-09T09:06:46;1.53;;;1.23;;
8171;SDS011;4127;47.908;10.850;2022-09-09T09:09:21;0.97;;;0.97;;
8171;SDS011;4127;47.908;10.850;2022-09-09T09:11:54;1.90;;;1.10;;
8171;SDS011;4127;47.908;10.850;2022-09-09T09:14:30;1.57;;;1.30;;
8171;SDS011;4127;47.908;10.850;2022-09-09T09:17:01;1.17;;;1.10;;
8171;SDS011;4127;47.908;10.850;2022-09-09T09:19:31;1.17;;;1.03;;
8171;SDS011;4127;47.908;10.850;2022-09-09T09:24:55;8.07;;;4.97;;
8171;SDS011;4127;47.908;10.850;2022-09-09T09:33:34;6.17;;;5.07;;
8171;SDS011;4127;47.908;10.850;2022-09-09T09:36:15;3.77;;;3.40;;
8171;SDS011;4127;47.908;10.850;2022-09-09T09:38:54;2.37;;;2.03;;
8171;SDS011;4127;47.908;10.850;2022-09-09T09:41:42;1.40;;;1.30;;
8171;SDS011;4127;47.908;10.850;2022-09-09T09:49:33;2.03;;;1.30;;
8171;SDS011;4127;47.908;10.850;2022-09-09T09:52:03;1.13;;;1.03;;
8171;SDS011;4127;47.908;10.850;2022-09-09T09:54:38;2.00;;;1.40;;
8171;SDS011;4127;47.908;10.850;2022-09-09T09:57:08;1.90;;;1.37;;
8171;SDS011;4127;47.908;10.850;2022-09-09T09:59:40;1.60;;;1.10;;
8171;SDS011;4127;47.908;10.850;2022-09-09T10:04:40;1.40;;;1.30;;
8171;SDS011;4127;47.908;10.850;2022-09-09T10:07:11;1.47;;;1.17;;
8171;SDS011;4127;47.908;10.850;2022-09-09T10:09:50;1.40;;;1.27;;
8171;SDS011;4127;47.908;10.850;2022-09-09T10:17:58;1.97;;;1.30;;
8171;SDS011;4127;47.908;10.850;2022-09-09T10:20:54;1.70;;;1.00;;
8171;SDS011;4127;47.908;10.850;2022-09-09T10:39:58;1.90;;;1.70;;
8171;SDS011;4127;47.908;10.850;2022-09-09T10:42:46;2.10;;;1.90;;
8171;SDS011;4127;47.908;10.850;2022-09-09T10:55:59;2.10;;;1.10;;
8171;SDS011;4127;47.908;10.850;2022-09-09T10:58:40;2.90;;;1.67;;
8171;SDS011;4127;47.908;10.850;2022-09-09T11:01:15;2.37;;;1.20;;
8171;SDS011;4127;47.908;10.850;2022-09-09T11:03:52;1.60;;;1.20;;
8171;SDS011;4127;47.908;10.850;2022-09-09T11:06:25;1.30;;;1.20;;
8171;SDS011;4127;47.908;10.850;2022-09-09T11:09:00;2.53;;;1.50;;
8171;SDS011;4127;47.908;10.850;2022-09-09T11:11:31;2.27;;;1.30;;
8171;SDS011;4127;47.908;10.850;2022-09-09T11:17:52;1.93;;;1.30;;
8171;SDS011;4127;47.908;10.850;2022-09-09T11:20:22;2.00;;;1.20;;
8171;SDS011;4127;47.908;10.850;2022-09-09T11:22:53;1.37;;;1.10;;
8171;SDS011;4127;47.908;10.850;2022-09-09T11:25:27;1.63;;;1.30;;
8171;SDS011;4127;47.908;10.850;2022-09-09T11:31:12;1.70;;;1.23;;
8171;SDS011;4127;47.908;10.850;2022-09-09T11:36:52;2.27;;;1.23;;
8171;SDS011;4127;47.908;10.850;2022-09-09T11:44:38;1.07;;;0.97;;
8171;SDS011;4127;47.908;10.850;2022-09-09T11:52:42;3.90;;;1.43;;
8171;SDS011;4127;47.908;10.850;2022-09-09T11:55:24;2.10;;;1.23;;
8171;SDS011;4127;47.908;10.850;2022-09-09T11:57:57;2.03;;;1.40;;
8171;SDS011;4127;47.908;10.850;2022-09-09T12:00:33;2.30;;;1.43;;
8171;SDS011;4127;47.908;10.850;2022-09-09T12:03:00;2.93;;;1.30;;
8171;SDS011;4127;47.908;10.850;2022-09-09T12:05:40;3.17;;;1.60;;
8171;SDS011;4127;47.908;10.850;2022-09-09T12:08:10;1.70;;;1.47;;
8171;SDS011;4127;47.908;10.850;2022-09-09T12:10:52;1.83;;;1.30;;
8171;SDS011;4127;47.908;10.850;2022-09-09T12:13:23;2.17;;;0.93;;
8171;SDS011;4127;47.908;10.850;2022-09-09T12:15:52;2.73;;;1.30;;
8171;SDS011;4127;47.908;10.850;2022-09-09T12:18:33;2.10;;;1.20;;
8171;SDS011;4127;47.908;10.850;2022-09-09T12:23:40;3.20;;;1.13;;
8171;SDS011;4127;47.908;10.850;2022-09-09T12:26:15;3.07;;;1.20;;
8171;SDS011;4127;47.908;10.850;2022-09-09T12:28:48;2.10;;;1.50;;
8171;SDS011;4127;47.908;10.850;2022-09-09T12:34:43;1.50;;;1.20;;
8171;SDS011;4127;47.908;10.850;2022-09-09T12:37:28;1.60;;;1.27;;
8171;SDS011;4127;47.908;10.850;2022-09-09T12:40:05;1.30;;;1.20;;
8171;SDS011;4127;47.908;10.850;2022-09-09T12:42:45;2.87;;;1.40;;
8171;SDS011;4127;47.908;10.850;2022-09-09T12:45:15;1.95;;;1.20;;
8171;SDS011;4127;47.908;10.850;2022-09-09T12:47:47;2.93;;;1.40;;
8171;SDS011;4127;47.908;10.850;2022-09-09T12:50:30;2.43;;;1.40;;
8171;SDS011;4127;47.908;10.850;2022-09-09T12:53:10;1.63;;;1.13;;
8171;SDS011;4127;47.908;10.850;2022-09-09T12:55:52;1.93;;;1.20;;
8171;SDS011;4127;47.908;10.850;2022-09-09T12:58:35;2.47;;;1.30;;
8171;SDS011;4127;47.908;10.850;2022-09-09T13:01:04;2.20;;;1.20;;
8171;SDS011;4127;47.908;10.850;2022-09-09T13:03:33;1.93;;;1.07;;
8171;SDS011;4127;47.908;10.850;2022-09-09T13:06:12;1.30;;;1.20;;
8171;SDS011;4127;47.908;10.850;2022-09-09T13:08:44;3.13;;;1.30;;
8171;SDS011;4127;47.908;10.850;2022-09-09T13:11:13;1.10;;;1.10;;
8171;SDS011;4127;47.908;10.850;2022-09-09T13:13:54;1.20;;;1.10;;
8171;SDS011;4127;47.908;10.850;2022-09-09T13:16:25;2.43;;;1.27;;
8171;SDS011;4127;47.908;10.850;2022-09-09T13:18:59;2.10;;;1.10;;
8171;SDS011;4127;47.908;10.850;2022-09-09T13:21:31;2.40;;;1.30;;
8171;SDS011;4127;47.908;10.850;2022-09-09T13:26:56;4.43;;;1.30;;
8171;SDS011;4127;47.908;10.850;2022-09-09T13:29:24;2.23;;;1.20;;
8171;SDS011;4127;47.908;10.850;2022-09-09T13:31:51;1.87;;;1.30;;
8171;SDS011;4127;47.908;10.850;2022-09-09T13:34:30;1.10;;;0.90;;
8171;SDS011;4127;47.908;10.850;2022-09-09T13:37:02;1.07;;;0.90;;
8171;SDS011;4127;47.908;10.850;2022-09-09T13:39:35;1.80;;;1.27;;
8171;SDS011;4127;47.908;10.850;2022-09-09T13:42:03;1.00;;;0.87;;
8171;SDS011;4127;47.908;10.850;2022-09-09T13:44:34;1.33;;;1.00;;
8171;SDS011;4127;47.908;10.850;2022-09-09T13:47:05;1.30;;;1.00;;
8171;SDS011;4127;47.908;10.850;2022-09-09T13:49:52;1.20;;;1.10;;
8171;SDS011;4127;47.908;10.850;2022-09-09T13:52:19;1.30;;;0.93;;
8171;SDS011;4127;47.908;10.850;2022-09-09T13:54:49;3.23;;;1.57;;
8171;SDS011;4127;47.908;10.850;2022-09-09T13:57:23;1.80;;;1.13;;
8171;SDS011;4127;47.908;10.850;2022-09-09T13:59:54;1.27;;;0.90;;
8171;SDS011;4127;47.908;10.850;2022-09-09T14:02:36;1.17;;;1.03;;
8171;SDS011;4127;47.908;10.850;2022-09-09T14:05:04;1.47;;;1.00;;
8171;SDS011;4127;47.908;10.850;2022-09-09T14:07:31;1.80;;;1.20;;
8171;SDS011;4127;47.908;10.850;2022-09-09T14:09:58;1.20;;;1.00;;
8171;SDS011;4127;47.908;10.850;2022-09-09T14:12:26;1.53;;;1.10;;
8171;SDS011;4127;47.908;10.850;2022-09-09T14:14:53;1.27;;;1.10;;
8171;SDS011;4127;47.908;10.850;2022-09-09T14:17:20;1.23;;;1.13;;
8171;SDS011;4127;47.908;10.850;2022-09-09T14:19:48;0.87;;;0.87;;
8171;SDS011;4127;47.908;10.850;2022-09-09T14:22:15;1.67;;;1.27;;
8171;SDS011;4127;47.908;10.850;2022-09-09T14:24:41;1.23;;;0.90;;
8171;SDS011;4127;47.908;10.850;2022-09-09T14:27:08;1.27;;;1.17;;
8171;SDS011;4127;47.908;10.850;2022-09-09T14:29:35;1.13;;;0.80;;
8171;SDS011;4127;47.908;10.850;2022-09-09T14:32:02;2.17;;;1.00;;
8171;SDS011;4127;47.908;10.850;2022-09-09T14:34:29;1.63;;;0.90;;
8171;SDS011;4127;47.908;10.850;2022-09-09T14:36:56;1.20;;;1.10;;
8171;SDS011;4127;47.908;10.850;2022-09-09T14:39:23;1.77;;;1.20;;
8171;SDS011;4127;47.908;10.850;2022-09-09T14:41:49;1.37;;;1.17;;
8171;SDS011;4127;47.908;10.850;2022-09-09T14:44:16;1.27;;;0.97;;
8171;SDS011;4127;47.908;10.850;2022-09-09T14:46:43;1.83;;;1.10;;
8171;SDS011;4127;47.908;10.850;2022-09-09T14:49:10;1.20;;;1.10;;
8171;SDS011;4127;47.908;10.850;2022-09-09T14:51:38;1.20;;;1.10;;
8171;SDS011;4127;47.908;10.850;2022-09-09T14:54:05;1.10;;;1.00;;
8171;SDS011;4127;47.908;10.850;2022-09-09T14:56:32;1.47;;;1.30;;
8171;SDS011;4127;47.908;10.850;2022-09-09T14:59:02;1.07;;;1.00;;
8171;SDS011;4127;47.908;10.850;2022-09-09T15:01:30;1.63;;;1.30;;
8171;SDS011;4127;47.908;10.850;2022-09-09T15:03:59;1.40;;;1.10;;
8171;SDS011;4127;47.908;10.850;2022-09-09T15:06:28;2.90;;;1.20;;
8171;SDS011;4127;47.908;10.850;2022-09-09T15:08:57;4.90;;;1.50;;
8171;SDS011;4127;47.908;10.850;2022-09-09T15:11:29;1.20;;;0.93;;
8171;SDS011;4127;47.908;10.850;2022-09-09T15:13:58;1.77;;;1.10;;
8171;SDS011;4127;47.908;10.850;2022-09-09T15:16:26;1.20;;;1.10;;
8171;SDS011;4127;47.908;10.850;2022-09-09T15:18:55;1.60;;;1.20;;
8171;SDS011;4127;47.908;10.850;2022-09-09T15:21:24;1.60;;;1.37;;
8171;SDS011;4127;47.908;10.850;2022-09-09T15:23:52;1.70;;;1.23;;
8171;SDS011;4127;47.908;10.850;2022-09-09T15:26:19;1.17;;;1.10;;
8171;SDS011;4127;47.908;10.850;2022-09-09T15:28:47;1.73;;;1.23;;
8171;SDS011;4127;47.908;10.850;2022-09-09T15:31:16;1.33;;;1.10;;
8171;SDS011;4127;47.908;10.850;2022-09-09T15:38:46;1.10;;;1.00;;
8171;SDS011;4127;47.908;10.850;2022-09-09T15:41:14;1.37;;;1.03;;
8171;SDS011;4127;47.908;10.850;2022-09-09T15:43:45;2.83;;;1.07;;
8171;SDS011;4127;47.908;10.850;2022-09-09T15:46:28;1.43;;;1.20;;
8171;SDS011;4127;47.908;10.850;2022-09-09T15:49:13;1.20;;;1.10;;
8171;SDS011;4127;47.908;10.850;2022-09-09T15:51:45;1.27;;;1.17;;
8171;SDS011;4127;47.908;10.850;2022-09-09T15:54:14;1.23;;;1.13;;
8171;SDS011;4127;47.908;10.850;2022-09-09T15:56:44;2.03;;;1.30;;
8171;SDS011;4127;47.908;10.850;2022-09-09T15:59:12;1.40;;;1.17;;
8171;SDS011;4127;47.908;10.850;2022-09-09T16:01:40;1.63;;;1.10;;
8171;SDS011;4127;47.908;10.850;2022-09-09T16:04:08;1.20;;;1.10;;
8171;SDS011;4127;47.908;10.850;2022-09-09T16:06:35;0.93;;;0.80;;
8171;SDS011;4127;47.908;10.850;2022-09-09T16:09:03;1.70;;;1.00;;
8171;SDS011;4127;47.908;10.850;2022-09-09T16:11:33;1.63;;;1.13;;
8171;SDS011;4127;47.908;10.850;2022-09-09T16:14:02;1.63;;;1.00;;
8171;SDS011;4127;47.908;10.850;2022-09-09T16:16:30;1.60;;;1.10;;
8171;SDS011;4127;47.908;10.850;2022-09-09T16:18:58;1.20;;;1.10;;
8171;SDS011;4127;47.908;10.850;2022-09-09T16:21:27;1.10;;;0.90;;
8171;SDS011;4127;47.908;10.850;2022-09-09T16:23:56;1.07;;;0.90;;
8171;SDS011;4127;47.908;10.850;2022-09-09T16:26:29;1.70;;;1.20;;
8171;SDS011;4127;47.908;10.850;2022-09-09T16:28:58;1.10;;;1.00;;
8171;SDS011;4127;47.908;10.850;2022-09-09T16:31:26;1.27;;;1.17;;
8171;SDS011;4127;47.908;10.850;2022-09-09T16:33:54;2.80;;;1.27;;
8171;SDS011;4127;47.908;10.850;2022-09-09T16:36:21;1.80;;;1.23;;
8171;SDS011;4127;47.908;10.850;2022-09-09T16:38:53;1.20;;;1.10;;
8171;SDS011;4127;47.908;10.850;2022-09-09T16:41:23;1.37;;;1.20;;
8171;SDS011;4127;47.908;10.850;2022-09-09T16:43:54;1.50;;;1.40;;
8171;SDS011;4127;47.908;10.850;2022-09-09T16:46:26;1.43;;;1.10;;
8171;SDS011;4127;47.908;10.850;2022-09-09T16:48:55;2.37;;;1.33;;
8171;SDS011;4127;47.908;10.850;2022-09-09T16:51:25;1.63;;;1.53;;
8171;SDS011;4127;47.908;10.850;2022-09-09T16:53:54;2.43;;;2.03;;
8171;SDS011;4127;47.908;10.850;2022-09-09T16:56:24;1.73;;;1.20;;
8171;SDS011;4127;47.908;10.850;2022-09-09T16:58:53;2.50;;;2.30;;
8171;SDS011;4127;47.908;10.850;2022-09-09T17:01:22;2.27;;;2.00;;
8171;SDS011;4127;47.908;10.850;2022-09-09T17:03:53;2.43;;;1.80;;
8171;SDS011;4127;47.908;10.850;2022-09-09T17:06:26;2.10;;;1.07;;
8171;SDS011;4127;47.908;10.850;2022-09-09T17:08:55;1.17;;;1.07;;
8171;SDS011;4127;47.908;10.850;2022-09-09T17:11:23;1.50;;;1.20;;
8171;SDS011;4127;47.908;10.850;2022-09-09T17:13:51;1.40;;;1.10;;
8171;SDS011;4127;47.908;10.850;2022-09-09T17:16:19;1.23;;;1.13;;
8171;SDS011;4127;47.908;10.850;2022-09-09T17:18:50;1.27;;;1.10;;
8171;SDS011;4127;47.908;10.850;2022-09-09T17:21:18;1.47;;;1.20;;
8171;SDS011;4127;47.908;10.850;2022-09-09T17:23:47;1.00;;;1.00;;
8171;SDS011;4127;47.908;10.850;2022-09-09T17:26:15;1.53;;;1.30;;
8171;SDS011;4127;47.908;10.850;2022-09-09T17:28:44;1.53;;;1.40;;
8171;SDS011;4127;47.908;10.850;2022-09-09T17:31:12;1.57;;;1.47;;
8171;SDS011;4127;47.908;10.850;2022-09-09T17:33:42;1.43;;;1.20;;
8171;SDS011;4127;47.908;10.850;2022-09-09T17:36:17;1.77;;;1.50;;
8171;SDS011;4127;47.908;10.850;2022-09-09T17:39:04;1.43;;;1.33;;
8171;SDS011;4127;47.908;10.850;2022-09-09T17:41:36;2.70;;;1.60;;
8171;SDS011;4127;47.908;10.850;2022-09-09T17:44:04;2.10;;;1.80;;
8171;SDS011;4127;47.908;10.850;2022-09-09T17:46:37;2.40;;;1.30;;